createdAt,value
2023-05-01T00:00:13.670Z,99.99
2023-05-01T00:01:13.627Z,99.99
2023-05-01T00:02:13.613Z,99.99
2023-05-01T00:03:13.725Z,99.99
2023-05-01T00:04:13.745Z,99.99
2023-05-01T00:05:13.655Z,99.99
2023-05-01T00:06:13.595Z,99.99
2023-05-01T00:07:14.470Z,99.99
2023-05-01T00:08:13.549Z,99.99
2023-05-01T00:09:13.583Z,99.99
2023-05-01T00:10:13.543Z,99.99
2023-05-01T00:11:13.550Z,99.99
2023-05-01T00:12:13.500Z,99.99
2023-05-01T00:13:13.513Z,99.99
2023-05-01T00:14:13.482Z,99.99
2023-05-01T00:15:13.465Z,99.99
2023-05-01T00:16:13.520Z,99.99
2023-05-01T00:17:13.499Z,99.99
2023-05-01T00:18:13.474Z,99.99
2023-05-01T00:19:13.416Z,99.99
2023-05-01T00:20:13.380Z,99.99
2023-05-01T00:21:13.396Z,99.99
2023-05-01T00:22:13.398Z,99.99
2023-05-01T00:23:13.411Z,99.99
2023-05-01T00:24:13.384Z,99.99
2023-05-01T00:25:13.359Z,99.99
2023-05-01T00:26:13.345Z,99.99
2023-05-01T00:27:13.338Z,99.99
2023-05-01T00:28:13.395Z,99.99
2023-05-01T00:29:13.330Z,99.99
2023-05-01T00:30:13.314Z,99.99
2023-05-01T00:31:13.333Z,99.99
2023-05-01T00:32:13.332Z,99.99
2023-05-01T00:33:13.281Z,99.99
2023-05-01T00:34:13.271Z,99.99
2023-05-01T00:35:13.253Z,99.99
2023-05-01T00:36:13.267Z,99.99
2023-05-01T00:37:13.254Z,99.99
2023-05-01T00:38:13.233Z,99.99
2023-05-01T00:39:13.243Z,99.99
2023-05-01T00:40:13.212Z,99.99
2023-05-01T00:41:13.211Z,99.99
2023-05-01T00:42:13.188Z,99.99
2023-05-01T00:43:13.188Z,99.99
2023-05-01T00:44:13.142Z,99.99
2023-05-01T00:45:13.149Z,99.99
2023-05-01T00:46:13.179Z,99.99
2023-05-01T00:47:13.126Z,99.99
2023-05-01T00:48:13.116Z,99.99
2023-05-01T00:49:13.113Z,99.99
2023-05-01T00:50:13.098Z,99.99
2023-05-01T00:51:13.087Z,99.99
2023-05-01T00:52:13.070Z,99.99
2023-05-01T00:53:13.071Z,99.99
2023-05-01T00:54:13.113Z,99.99
2023-05-01T00:55:13.081Z,99.99
2023-05-01T00:56:13.025Z,99.99
2023-05-01T00:57:13.018Z,99.99
2023-05-01T00:58:13.020Z,99.99
2023-05-01T00:59:13.037Z,99.99
2023-05-01T01:00:13.050Z,99.99
2023-05-01T01:01:12.991Z,99.99
2023-05-01T01:02:12.984Z,99.99
2023-05-01T01:03:12.960Z,99.99
2023-05-01T01:04:12.970Z,99.99
2023-05-01T01:05:12.938Z,99.99
2023-05-01T01:06:13.012Z,99.99
2023-05-01T01:07:12.991Z,99.99
2023-05-01T01:08:12.909Z,99.99
2023-05-01T01:09:12.917Z,99.99
2023-05-01T01:10:12.876Z,99.99
2023-05-01T01:11:12.890Z,99.99
2023-05-01T01:12:12.861Z,99.99
2023-05-01T01:13:12.896Z,99.99
2023-05-01T01:14:12.845Z,99.99
2023-05-01T01:15:12.825Z,99.99
2023-05-01T01:16:12.857Z,99.99
2023-05-01T01:17:12.975Z,99.99
2023-05-01T01:18:12.835Z,99.99
2023-05-01T01:19:12.841Z,99.99
2023-05-01T01:20:12.791Z,99.99
2023-05-01T01:21:12.779Z,99.99
2023-05-01T01:22:12.758Z,99.99
2023-05-01T01:23:12.771Z,99.99
2023-05-01T01:24:12.749Z,99.99
2023-05-01T01:25:12.734Z,99.99
2023-05-01T01:26:12.708Z,99.99
2023-05-01T01:27:12.722Z,99.99
2023-05-01T01:28:12.683Z,99.99
2023-05-01T01:29:12.693Z,99.99
2023-05-01T01:30:12.755Z,99.99
2023-05-01T01:31:12.734Z,99.99
2023-05-01T01:32:12.634Z,99.99
2023-05-01T01:33:12.672Z,99.99
2023-05-01T01:34:12.630Z,99.99
2023-05-01T01:35:12.633Z,99.99
2023-05-01T01:36:12.608Z,99.99
2023-05-01T01:37:12.598Z,99.99
2023-05-01T01:38:12.603Z,99.99
2023-05-01T01:39:12.605Z,99.99
2023-05-01T01:40:12.587Z,99.99
2023-05-01T01:41:12.588Z,99.99
2023-05-01T01:42:12.545Z,99.99
2023-05-01T01:43:12.532Z,99.99
2023-05-01T01:44:12.517Z,99.99
2023-05-01T01:45:12.538Z,99.99
2023-05-01T01:46:12.563Z,99.99
2023-05-01T01:47:12.496Z,99.99
2023-05-01T01:48:12.569Z,99.99
2023-05-01T01:49:12.468Z,99.99
2023-05-01T01:50:12.463Z,99.99
2023-05-01T01:51:12.456Z,99.99
2023-05-01T01:52:12.427Z,99.99
2023-05-01T01:53:12.436Z,99.99
2023-05-01T01:54:12.400Z,99.99
2023-05-01T01:55:12.400Z,99.99
2023-05-01T01:56:12.395Z,99.99
2023-05-01T01:57:12.380Z,99.99
2023-05-01T01:58:12.385Z,99.99
2023-05-01T01:59:12.397Z,99.99
2023-05-01T02:00:12.335Z,99.99
2023-05-01T02:01:12.542Z,99.99
2023-05-01T02:02:12.386Z,99.99
2023-05-01T02:03:12.455Z,99.99
2023-05-01T02:04:12.317Z,99.99
2023-05-01T02:05:12.324Z,99.99
2023-05-01T02:06:12.287Z,99.99
2023-05-01T02:07:12.269Z,99.99
2023-05-01T02:08:12.275Z,99.99
2023-05-01T02:09:12.266Z,99.99
2023-05-01T02:10:12.244Z,99.99
2023-05-01T02:11:12.261Z,99.99
2023-05-01T02:12:12.230Z,99.99
2023-05-01T02:13:12.236Z,99.99
2023-05-01T02:14:12.192Z,99.99
2023-05-01T02:15:12.196Z,99.99
2023-05-01T02:16:12.405Z,99.99
2023-05-01T02:17:12.195Z,99.99
2023-05-01T02:18:12.154Z,99.99
2023-05-01T02:19:12.170Z,99.99
2023-05-01T02:20:12.171Z,99.99
2023-05-01T02:21:12.128Z,99.99
2023-05-01T02:22:12.103Z,99.99
2023-05-01T02:23:12.129Z,99.99
2023-05-01T02:24:12.099Z,99.99
2023-05-01T02:25:12.091Z,99.99
2023-05-01T02:26:12.069Z,99.99
2023-05-01T02:27:12.082Z,99.99
2023-05-01T02:28:12.054Z,99.99
2023-05-01T02:29:12.069Z,99.99
2023-05-01T02:30:12.034Z,99.99
2023-05-01T02:31:12.059Z,99.99
2023-05-01T02:32:12.333Z,99.99
2023-05-01T02:33:12.032Z,99.99
2023-05-01T02:34:12.036Z,99.99
2023-05-01T02:35:11.988Z,99.99
2023-05-01T02:36:11.969Z,99.99
2023-05-01T02:37:12.013Z,99.99
2023-05-01T02:38:11.991Z,99.99
2023-05-01T02:39:12.017Z,99.99
2023-05-01T02:40:11.917Z,99.99
2023-05-01T02:41:11.925Z,99.99
2023-05-01T02:42:11.900Z,99.99
2023-05-01T02:43:11.895Z,99.99
2023-05-01T02:44:11.877Z,99.99
2023-05-01T02:45:11.896Z,99.99
2023-05-01T02:46:11.908Z,99.99
2023-05-01T02:47:11.902Z,99.99
2023-05-01T02:48:11.916Z,99.99
2023-05-01T02:49:11.843Z,99.99
2023-05-01T02:50:11.846Z,99.99
2023-05-01T02:51:11.848Z,99.99
2023-05-01T02:52:11.842Z,99.99
2023-05-01T02:53:11.835Z,99.99
2023-05-01T02:54:11.791Z,99.99
2023-05-01T02:55:11.797Z,99.99
2023-05-01T02:56:11.837Z,99.99
2023-05-01T02:57:11.728Z,99.99
2023-05-01T02:58:11.703Z,99.99
2023-05-01T02:59:11.725Z,99.99
2023-05-01T03:00:11.730Z,99.99
2023-05-01T03:01:11.767Z,99.99
2023-05-01T03:02:11.695Z,99.99
2023-05-01T03:03:11.760Z,99.99
2023-05-01T03:04:11.830Z,99.99
2023-05-01T03:05:11.672Z,99.99
2023-05-01T03:06:11.698Z,99.99
2023-05-01T03:07:11.655Z,99.99
2023-05-01T03:08:11.708Z,99.99
2023-05-01T03:09:11.618Z,99.99
2023-05-01T03:10:11.628Z,99.99
2023-05-01T03:11:11.603Z,99.99
2023-05-01T03:12:11.599Z,99.99
2023-05-01T03:13:11.582Z,99.99
2023-05-01T03:14:11.607Z,99.99
2023-05-01T03:15:11.560Z,99.99
2023-05-01T03:16:11.605Z,99.99
2023-05-01T03:17:11.551Z,99.99
2023-05-01T03:18:11.594Z,99.99
2023-05-01T03:19:11.495Z,99.99
2023-05-01T03:20:11.495Z,99.99
2023-05-01T03:21:11.556Z,99.99
2023-05-01T03:22:11.456Z,99.99
2023-05-01T03:23:11.439Z,99.99
2023-05-01T03:24:11.436Z,99.99
2023-05-01T03:25:11.429Z,99.99
2023-05-01T03:26:11.444Z,99.99
2023-05-01T03:27:11.432Z,99.99
2023-05-01T03:28:11.434Z,99.99
2023-05-01T03:29:11.394Z,99.99
2023-05-01T03:30:11.381Z,99.99
2023-05-01T03:31:11.375Z,99.99
2023-05-01T03:32:11.441Z,99.99
2023-05-01T03:33:11.441Z,99.99
2023-05-01T03:34:11.397Z,99.99
2023-05-01T03:35:11.361Z,99.99
2023-05-01T03:36:11.338Z,99.99
2023-05-01T03:37:11.321Z,99.99
2023-05-01T03:38:11.323Z,99.99
2023-05-01T03:39:11.283Z,99.99
2023-05-01T03:40:11.297Z,99.99
2023-05-01T03:41:11.845Z,99.99
2023-05-01T03:42:11.271Z,99.99
2023-05-01T03:43:11.268Z,99.99
2023-05-01T03:44:11.245Z,99.99
2023-05-01T03:45:11.232Z,99.99
2023-05-01T03:46:11.303Z,99.99
2023-05-01T03:47:11.200Z,99.99
2023-05-01T03:48:11.323Z,99.99
2023-05-01T03:49:11.190Z,99.99
2023-05-01T03:50:11.210Z,99.99
2023-05-01T03:51:11.165Z,99.99
2023-05-01T03:52:11.204Z,99.99
2023-05-01T03:53:11.166Z,99.99
2023-05-01T03:54:11.146Z,99.99
2023-05-01T03:55:11.133Z,99.99
2023-05-01T03:56:11.141Z,99.99
2023-05-01T03:57:11.135Z,99.99
2023-05-01T03:58:11.152Z,99.99
2023-05-01T03:59:11.102Z,99.99
2023-05-01T04:00:11.088Z,99.99
2023-05-01T04:01:11.042Z,99.99
2023-05-01T04:02:11.106Z,99.99
2023-05-01T04:03:11.074Z,99.99
2023-05-01T04:04:11.207Z,99.99
2023-05-01T04:05:11.035Z,99.99
2023-05-01T04:06:11.103Z,99.99
2023-05-01T04:07:10.999Z,99.99
2023-05-01T04:08:10.992Z,99.99
2023-05-01T04:09:10.982Z,99.99
2023-05-01T04:10:10.989Z,99.99
2023-05-01T04:11:10.939Z,99.99
2023-05-01T04:12:10.949Z,99.99
2023-05-01T04:13:10.902Z,99.99
2023-05-01T04:14:10.935Z,99.99
2023-05-01T04:15:10.897Z,99.99
2023-05-01T04:16:11.047Z,99.99
2023-05-01T04:17:10.891Z,99.99
2023-05-01T04:18:10.961Z,99.99
2023-05-01T04:19:10.860Z,99.99
2023-05-01T04:20:10.871Z,99.99
2023-05-01T04:21:10.852Z,99.99
2023-05-01T04:22:10.855Z,99.99
2023-05-01T04:23:10.817Z,99.99
2023-05-01T04:24:10.863Z,99.99
2023-05-01T04:25:10.809Z,99.99
2023-05-01T04:26:10.811Z,99.99
2023-05-01T04:27:10.785Z,99.99
2023-05-01T04:28:10.774Z,99.99
2023-05-01T04:29:10.751Z,99.99
2023-05-01T04:30:10.762Z,99.99
2023-05-01T04:31:10.794Z,99.99
2023-05-01T04:32:10.734Z,99.99
2023-05-01T04:33:10.785Z,99.99
2023-05-01T04:34:10.740Z,99.99
2023-05-01T04:35:10.707Z,99.99
2023-05-01T04:36:11.105Z,99.99
2023-05-01T04:37:10.678Z,99.99
2023-05-01T04:38:10.806Z,99.99
2023-05-01T04:39:10.671Z,99.99
2023-05-01T04:40:11.778Z,99.99
2023-05-01T04:41:10.631Z,99.99
2023-05-01T04:42:10.635Z,99.99
2023-05-01T04:43:10.605Z,99.99
2023-05-01T04:44:10.624Z,99.99
2023-05-01T04:45:10.576Z,99.99
2023-05-01T04:46:10.636Z,99.99
2023-05-01T04:47:10.633Z,99.99
2023-05-01T04:48:10.617Z,99.99
2023-05-01T04:49:10.540Z,99.99
2023-05-01T04:50:10.552Z,99.99
2023-05-01T04:51:10.528Z,99.99
2023-05-01T04:52:10.555Z,99.99
2023-05-01T04:53:10.535Z,99.99
2023-05-01T04:54:10.503Z,99.99
2023-05-01T04:55:10.494Z,99.99
2023-05-01T04:56:10.485Z,99.99
2023-05-01T04:57:10.471Z,99.99
2023-05-01T04:58:10.451Z,99.99
2023-05-01T04:59:10.427Z,99.99
2023-05-01T05:00:10.431Z,99.99
2023-05-01T05:01:10.475Z,99.99
2023-05-01T05:02:10.405Z,99.99
2023-05-01T05:03:10.550Z,99.99
2023-05-01T05:04:10.436Z,99.99
2023-05-01T05:05:10.381Z,99.99
2023-05-01T05:06:10.422Z,99.99
2023-05-01T05:07:10.387Z,99.99
2023-05-01T05:08:10.357Z,99.99
2023-05-01T05:09:10.360Z,99.99
2023-05-01T05:10:10.333Z,99.99
2023-05-01T05:11:10.327Z,99.99
2023-05-01T05:12:10.353Z,99.99
2023-05-01T05:13:10.291Z,99.99
2023-05-01T05:14:10.271Z,99.99
2023-05-01T05:15:10.275Z,99.99
2023-05-01T05:16:10.332Z,99.99
2023-05-01T05:17:10.264Z,99.99
2023-05-01T05:18:10.329Z,99.99
2023-05-01T05:19:10.209Z,99.99
2023-05-01T05:20:10.253Z,99.99
2023-05-01T05:21:10.190Z,99.99
2023-05-01T05:22:10.199Z,99.99
2023-05-01T05:23:10.199Z,99.99
2023-05-01T05:24:10.186Z,99.99
2023-05-01T05:25:10.181Z,99.99
2023-05-01T05:26:10.191Z,99.99
2023-05-01T05:27:10.134Z,99.99
2023-05-01T05:28:10.135Z,99.99
2023-05-01T05:29:10.099Z,99.99
2023-05-01T05:30:17.176Z,99.99
2023-05-01T05:31:10.072Z,99.99
2023-05-01T05:32:10.140Z,99.99
2023-05-01T05:33:13.943Z,99.99
2023-05-01T05:34:10.079Z,99.99
2023-05-01T05:35:10.031Z,99.99
2023-05-01T05:36:10.070Z,99.99
2023-05-01T05:37:10.033Z,99.99
2023-05-01T05:38:10.154Z,99.99
2023-05-01T05:39:09.996Z,99.99
2023-05-01T05:40:09.995Z,99.99
2023-05-01T05:41:10.019Z,99.99
2023-05-01T05:42:09.973Z,99.65
2023-05-01T05:43:10.003Z,98.99
2023-05-01T05:44:09.943Z,98.47
2023-05-01T05:45:09.940Z,98.32
2023-05-01T05:46:09.983Z,97.91
2023-05-01T05:47:09.912Z,97.39
2023-05-01T05:48:10.006Z,96.42
2023-05-01T05:49:09.880Z,96.11
2023-05-01T05:50:09.980Z,95.24
2023-05-01T05:51:09.894Z,94.52
2023-05-01T05:52:09.880Z,94.06
2023-05-01T05:53:09.867Z,93.24
2023-05-01T05:54:09.845Z,92.47
2023-05-01T05:55:09.835Z,92.27
2023-05-01T05:56:09.842Z,91.34
2023-05-01T05:57:09.828Z,90.78
2023-05-01T05:58:09.803Z,89.85
2023-05-01T05:59:09.788Z,88.82
2023-05-01T06:00:09.775Z,88.41
2023-05-01T06:01:09.784Z,87.34
2023-05-01T06:02:09.906Z,86.82
2023-05-01T06:03:09.812Z,86.21
2023-05-01T06:04:09.734Z,85.34
2023-05-01T06:05:09.793Z,84.42
2023-05-01T06:06:10.102Z,84.62
2023-05-01T06:07:09.713Z,83.14
2023-05-01T06:08:09.710Z,83.86
2023-05-01T06:09:09.752Z,83.04
2023-05-01T06:10:09.675Z,82.83
2023-05-01T06:11:09.669Z,82.69
2023-05-01T06:12:09.675Z,82.59
2023-05-01T06:13:13.251Z,82.07
2023-05-01T06:14:09.640Z,81.97
2023-05-01T06:15:09.600Z,81.73
2023-05-01T06:16:09.736Z,81.73
2023-05-01T06:17:09.616Z,81.62
2023-05-01T06:18:09.606Z,81.28
2023-05-01T06:19:09.594Z,80.66
2023-05-01T06:20:09.577Z,80.35
2023-05-01T06:21:09.541Z,79.84
2023-05-01T06:22:09.555Z,79.29
2023-05-01T06:23:09.694Z,78.06
2023-05-01T06:24:09.543Z,77.44
2023-05-01T06:25:09.545Z,77.34
2023-05-01T06:26:09.535Z,76.93
2023-05-01T06:27:09.484Z,77.75
2023-05-01T06:28:09.475Z,76.79
2023-05-01T06:29:09.476Z,76.28
2023-05-01T06:30:09.507Z,75.15
2023-05-01T06:31:09.545Z,75.56
2023-05-01T06:32:09.436Z,75.87
2023-05-01T06:33:09.494Z,75.83
2023-05-01T06:34:09.412Z,75.93
2023-05-01T06:35:09.393Z,75.08
2023-05-01T06:36:09.420Z,75.18
2023-05-01T06:37:09.402Z,75.69
2023-05-01T06:38:09.378Z,75.76
2023-05-01T06:39:09.398Z,74.84
2023-05-01T06:40:09.384Z,74.70
2023-05-01T06:41:09.389Z,73.57
2023-05-01T06:42:09.346Z,73.47
2023-05-01T06:43:09.309Z,73.44
2023-05-01T06:44:09.308Z,72.52
2023-05-01T06:45:09.279Z,71.66
2023-05-01T06:46:09.314Z,70.53
2023-05-01T06:47:09.326Z,69.68
2023-05-01T06:48:09.312Z,69.17
2023-05-01T06:49:09.258Z,68.87
2023-05-01T06:50:09.297Z,68.73
2023-05-01T06:51:09.220Z,68.32
2023-05-01T06:52:09.233Z,68.22
2023-05-01T06:53:09.204Z,69.01
2023-05-01T06:54:09.231Z,68.70
2023-05-01T06:55:09.193Z,68.08
2023-05-01T06:56:09.191Z,67.65
2023-05-01T06:57:09.145Z,67.03
2023-05-01T06:58:22.498Z,67.51
2023-05-01T06:59:10.130Z,66.49
2023-05-01T07:00:09.153Z,66.90
2023-05-01T07:01:09.140Z,65.54
2023-05-01T07:02:09.154Z,66.97
2023-05-01T07:03:09.130Z,66.33
2023-05-01T07:04:09.118Z,66.12
2023-05-01T07:05:09.115Z,64.25
2023-05-01T07:06:09.177Z,63.34
2023-05-01T07:07:09.050Z,63.75
2023-05-01T07:08:09.060Z,62.93
2023-05-01T07:09:09.026Z,63.03
2023-05-01T07:10:09.044Z,62.82
2023-05-01T07:11:09.043Z,62.32
2023-05-01T07:12:10.018Z,62.42
2023-05-01T07:13:09.002Z,61.80
2023-05-01T07:14:08.967Z,62.82
2023-05-01T07:15:08.945Z,63.85
2023-05-01T07:16:08.991Z,62.18
2023-05-01T07:17:08.940Z,61.88
2023-05-01T07:18:09.059Z,62.59
2023-05-01T07:19:08.921Z,61.44
2023-05-01T07:20:08.901Z,61.00
2023-05-01T07:21:08.892Z,59.89
2023-05-01T07:22:08.875Z,58.87
2023-05-01T07:23:08.882Z,59.38
2023-05-01T07:24:08.853Z,58.84
2023-05-01T07:25:08.852Z,58.44
2023-05-01T07:26:08.829Z,58.23
2023-05-01T07:27:08.854Z,57.79
2023-05-01T07:28:08.812Z,57.79
2023-05-01T07:29:08.831Z,57.87
2023-05-01T07:30:08.798Z,57.43
2023-05-01T07:31:08.805Z,57.21
2023-05-01T07:32:08.863Z,56.67
2023-05-01T07:33:08.817Z,55.73
2023-05-01T07:34:08.762Z,55.40
2023-05-01T07:35:08.759Z,54.57
2023-05-01T07:36:08.748Z,54.41
2023-05-01T07:37:08.782Z,52.39
2023-05-01T07:38:08.739Z,51.75
2023-05-01T07:39:08.715Z,53.88
2023-05-01T07:40:08.679Z,53.25
2023-05-01T07:41:08.695Z,51.12
2023-05-01T07:42:08.805Z,50.67
2023-05-01T07:43:08.663Z,50.37
2023-05-01T07:44:08.646Z,50.44
2023-05-01T07:45:08.657Z,48.60
2023-05-01T07:46:08.667Z,48.60
2023-05-01T07:47:08.607Z,48.25
2023-05-01T07:48:08.717Z,47.02
2023-05-01T07:49:08.603Z,47.88
2023-05-01T07:50:08.558Z,45.70
2023-05-01T07:51:08.580Z,44.55
2023-05-01T07:52:08.553Z,43.60
2023-05-01T07:53:08.614Z,42.47
2023-05-01T07:54:08.529Z,40.95
2023-05-01T07:55:08.572Z,40.83
2023-05-01T07:56:08.592Z,40.93
2023-05-01T07:57:08.532Z,39.51
2023-05-01T07:58:08.492Z,39.81
2023-05-01T07:59:08.502Z,41.41
2023-05-01T08:00:08.473Z,40.43
2023-05-01T08:01:08.459Z,40.55
2023-05-01T08:02:08.448Z,42.24
2023-05-01T08:03:08.704Z,42.15
2023-05-01T08:04:08.525Z,42.44
2023-05-01T08:05:08.455Z,41.27
2023-05-01T08:06:08.505Z,41.03
2023-05-01T08:07:08.400Z,39.51
2023-05-01T08:08:08.379Z,39.18
2023-05-01T08:09:08.376Z,38.55
2023-05-01T08:10:08.365Z,38.45
2023-05-01T08:11:08.374Z,39.07
2023-05-01T08:12:08.342Z,38.15
2023-05-01T08:13:08.371Z,38.53
2023-05-01T08:14:08.308Z,37.41
2023-05-01T08:15:08.320Z,38.51
2023-05-01T08:16:08.304Z,38.49
2023-05-01T08:17:08.290Z,37.99
2023-05-01T08:18:08.300Z,37.40
2023-05-01T08:19:08.281Z,36.66
2023-05-01T08:20:08.247Z,36.24
2023-05-01T08:21:08.240Z,35.83
2023-05-01T08:22:08.222Z,35.61
2023-05-01T08:23:08.233Z,35.28
2023-05-01T08:24:08.194Z,34.06
2023-05-01T08:25:08.218Z,33.67
2023-05-01T08:26:08.192Z,32.15
2023-05-01T08:27:08.181Z,31.96
2023-05-01T08:28:08.153Z,31.84
2023-05-01T08:29:08.183Z,31.83
2023-05-01T08:30:08.177Z,30.91
2023-05-01T08:31:08.204Z,30.32
2023-05-01T08:32:08.141Z,30.82
2023-05-01T08:33:08.170Z,30.32
2023-05-01T08:34:08.104Z,31.03
2023-05-01T08:35:08.093Z,31.64
2023-05-01T08:36:08.077Z,30.93
2023-05-01T08:37:08.083Z,30.52
2023-05-01T08:38:08.050Z,31.00
2023-05-01T08:39:08.033Z,31.50
2023-05-01T08:40:08.028Z,32.20
2023-05-01T08:41:08.032Z,30.30
2023-05-01T08:42:08.006Z,30.41
2023-05-01T08:43:07.996Z,30.32
2023-05-01T08:44:08.086Z,29.24
2023-05-01T08:45:07.992Z,29.84
2023-05-01T08:46:08.035Z,30.33
2023-05-01T08:47:08.157Z,30.16
2023-05-01T08:48:08.080Z,30.69
2023-05-01T08:49:07.941Z,32.14
2023-05-01T08:50:07.910Z,32.36
2023-05-01T08:51:07.914Z,33.41
2023-05-01T08:52:07.891Z,34.11
2023-05-01T08:53:07.895Z,34.01
2023-05-01T08:54:07.892Z,34.21
2023-05-01T08:55:07.882Z,34.19
2023-05-01T08:56:07.834Z,33.50
2023-05-01T08:57:10.253Z,34.51
2023-05-01T08:58:07.845Z,35.61
2023-05-01T08:59:07.817Z,34.80
2023-05-01T09:00:07.805Z,33.58
2023-05-01T09:01:07.867Z,33.47
2023-05-01T09:02:08.045Z,34.08
2023-05-01T09:03:07.901Z,33.58
2023-05-01T09:04:07.772Z,33.75
2023-05-01T09:05:07.765Z,33.04
2023-05-01T09:06:07.798Z,33.33
2023-05-01T09:07:07.762Z,33.43
2023-05-01T09:08:07.729Z,32.83
2023-05-01T09:09:07.699Z,33.26
2023-05-01T09:10:07.696Z,34.86
2023-05-01T09:11:07.700Z,34.26
2023-05-01T09:12:07.691Z,34.09
2023-05-01T09:13:07.671Z,33.98
2023-05-01T09:14:07.642Z,34.18
2023-05-01T09:15:07.711Z,33.47
2023-05-01T09:16:07.717Z,35.86
2023-05-01T09:17:07.613Z,34.96
2023-05-01T09:18:07.704Z,34.59
2023-05-01T09:19:07.594Z,34.39
2023-05-01T09:20:07.678Z,34.80
2023-05-01T09:21:07.604Z,35.19
2023-05-01T09:22:07.552Z,34.89
2023-05-01T09:23:07.572Z,34.58
2023-05-01T09:24:07.535Z,34.46
2023-05-01T09:25:07.545Z,34.98
2023-05-01T09:26:07.533Z,35.08
2023-05-01T09:27:07.534Z,35.10
2023-05-01T09:28:07.502Z,35.19
2023-05-01T09:29:07.503Z,35.51
2023-05-01T09:30:07.461Z,35.41
2023-05-01T09:31:07.476Z,36.11
2023-05-01T09:32:07.482Z,36.51
2023-05-01T09:33:07.512Z,35.60
2023-05-01T09:34:07.441Z,35.68
2023-05-01T09:35:07.428Z,35.46
2023-05-01T09:36:07.393Z,36.15
2023-05-01T09:37:07.411Z,36.24
2023-05-01T09:38:07.418Z,35.53
2023-05-01T09:39:07.384Z,35.83
2023-05-01T09:40:07.406Z,33.81
2023-05-01T09:41:07.391Z,33.80
2023-05-01T09:42:07.329Z,33.91
2023-05-01T09:43:07.343Z,34.83
2023-05-01T09:44:07.322Z,34.13
2023-05-01T09:45:07.311Z,34.33
2023-05-01T09:46:07.506Z,36.54
2023-05-01T09:47:07.306Z,34.56
2023-05-01T09:48:07.308Z,34.05
2023-05-01T09:49:07.277Z,33.83
2023-05-01T09:50:07.260Z,33.31
2023-05-01T09:51:07.263Z,35.72
2023-05-01T09:52:07.240Z,36.32
2023-05-01T09:53:07.245Z,36.21
2023-05-01T09:54:07.214Z,34.99
2023-05-01T09:55:07.210Z,34.39
2023-05-01T09:56:07.190Z,35.97
2023-05-01T09:57:07.211Z,34.68
2023-05-01T09:58:07.158Z,33.15
2023-05-01T09:59:07.178Z,33.83
2023-05-01T10:00:07.181Z,32.87
2023-05-01T10:01:07.196Z,32.95
2023-05-01T10:02:07.163Z,32.57
2023-05-01T10:03:08.589Z,32.26
2023-05-01T10:04:07.241Z,33.34
2023-05-01T10:05:07.104Z,33.30
2023-05-01T10:06:07.090Z,32.59
2023-05-01T10:07:07.108Z,32.26
2023-05-01T10:08:07.060Z,32.92
2023-05-01T10:09:07.046Z,33.11
2023-05-01T10:10:07.053Z,32.60
2023-05-01T10:11:07.048Z,33.62
2023-05-01T10:12:07.031Z,34.22
2023-05-01T10:13:07.057Z,30.91
2023-05-01T10:14:07.034Z,30.42
2023-05-01T10:15:21.046Z,31.80
2023-05-01T10:16:08.036Z,31.33
2023-05-01T10:17:07.199Z,31.61
2023-05-01T10:18:07.003Z,34.01
2023-05-01T10:19:06.966Z,32.14
2023-05-01T10:20:06.941Z,32.26
2023-05-01T10:21:06.935Z,31.64
2023-05-01T10:22:06.898Z,32.93
2023-05-01T10:23:06.923Z,31.53
2023-05-01T10:24:06.925Z,32.32
2023-05-01T10:25:06.906Z,32.64
2023-05-01T10:26:07.194Z,31.84
2023-05-01T10:27:06.864Z,31.73
2023-05-01T10:28:06.864Z,30.91
2023-05-01T10:29:06.828Z,31.99
2023-05-01T10:30:06.826Z,31.10
2023-05-01T10:31:06.849Z,31.61
2023-05-01T10:32:06.829Z,32.01
2023-05-01T10:33:06.818Z,33.70
2023-05-01T10:34:06.783Z,31.71
2023-05-01T10:35:06.776Z,32.11
2023-05-01T10:36:06.816Z,32.01
2023-05-01T10:37:06.796Z,31.45
2023-05-01T10:38:06.753Z,31.97
2023-05-01T10:39:06.712Z,31.27
2023-05-01T10:40:06.741Z,31.89
2023-05-01T10:41:06.718Z,32.40
2023-05-01T10:42:06.738Z,32.52
2023-05-01T10:43:06.743Z,32.53
2023-05-01T10:44:06.672Z,32.53
2023-05-01T10:45:06.680Z,33.12
2023-05-01T10:46:06.679Z,32.42
2023-05-01T10:47:06.840Z,32.71
2023-05-01T10:48:06.676Z,33.40
2023-05-01T10:49:06.634Z,34.41
2023-05-01T10:50:06.601Z,32.93
2023-05-01T10:51:06.615Z,34.05
2023-05-01T10:52:06.599Z,34.26
2023-05-01T10:53:06.599Z,34.08
2023-05-01T10:54:06.560Z,34.58
2023-05-01T10:55:06.558Z,34.36
2023-05-01T10:56:06.543Z,33.35
2023-05-01T10:57:06.598Z,32.43
2023-05-01T10:58:06.529Z,32.02
2023-05-01T10:59:06.579Z,32.00
2023-05-01T11:00:06.514Z,31.89
2023-05-01T11:01:06.515Z,31.79
2023-05-01T11:02:06.506Z,32.10
2023-05-01T11:03:06.634Z,33.12
2023-05-01T11:04:06.451Z,34.11
2023-05-01T11:05:06.553Z,34.93
2023-05-01T11:06:06.573Z,35.46
2023-05-01T11:07:06.502Z,34.48
2023-05-01T11:08:06.421Z,34.96
2023-05-01T11:09:06.414Z,35.36
2023-05-01T11:10:06.415Z,34.56
2023-05-01T11:11:06.400Z,34.94
2023-05-01T11:12:06.359Z,34.13
2023-05-01T11:13:06.387Z,34.41
2023-05-01T11:14:06.377Z,33.91
2023-05-01T11:15:06.374Z,33.12
2023-05-01T11:16:06.349Z,33.22
2023-05-01T11:17:06.358Z,34.80
2023-05-01T11:18:06.513Z,32.90
2023-05-01T11:19:06.502Z,32.70
2023-05-01T11:20:06.310Z,33.40
2023-05-01T11:21:06.311Z,32.32
2023-05-01T11:22:06.279Z,33.25
2023-05-01T11:23:06.282Z,33.04
2023-05-01T11:24:06.255Z,32.85
2023-05-01T11:25:06.256Z,33.35
2023-05-01T11:26:06.281Z,34.53
2023-05-01T11:27:06.243Z,33.51
2023-05-01T11:28:06.220Z,33.22
2023-05-01T11:29:06.233Z,33.22
2023-05-01T11:30:06.210Z,34.01
2023-05-01T11:31:06.192Z,33.30
2023-05-01T11:32:06.270Z,33.40
2023-05-01T11:33:07.112Z,33.42
2023-05-01T11:34:06.171Z,33.51
2023-05-01T11:35:06.153Z,33.83
2023-05-01T11:36:06.198Z,34.13
2023-05-01T11:37:06.117Z,33.81
2023-05-01T11:38:06.114Z,34.80
2023-05-01T11:39:06.148Z,34.00
2023-05-01T11:40:06.100Z,33.48
2023-05-01T11:41:06.093Z,32.78
2023-05-01T11:42:06.118Z,33.30
2023-05-01T11:43:06.074Z,33.28
2023-05-01T11:44:06.055Z,33.48
2023-05-01T11:45:06.014Z,32.59
2023-05-01T11:46:06.059Z,34.20
2023-05-01T11:47:06.056Z,33.50
2023-05-01T11:48:06.137Z,32.60
2023-05-01T11:49:06.220Z,33.12
2023-05-01T11:50:06.029Z,34.51
2023-05-01T11:51:05.960Z,32.80
2023-05-01T11:52:05.974Z,33.20
2023-05-01T11:53:05.933Z,33.60
2023-05-01T11:54:05.935Z,33.51
2023-05-01T11:55:05.937Z,33.51
2023-05-01T11:56:10.859Z,33.93
2023-05-01T11:57:06.929Z,33.53
2023-05-01T11:58:05.900Z,33.12
2023-05-01T11:59:05.875Z,33.91
2023-05-01T12:00:05.866Z,33.91
2023-05-01T12:01:05.846Z,33.61
2023-05-01T12:02:05.898Z,32.52
2023-05-01T12:03:06.253Z,33.63
2023-05-01T12:04:05.909Z,34.53
2023-05-01T12:05:05.995Z,32.93
2023-05-01T12:06:05.932Z,33.93
2023-05-01T12:07:05.795Z,34.11
2023-05-01T12:08:05.861Z,34.64
2023-05-01T12:09:05.770Z,35.99
2023-05-01T12:10:05.797Z,36.11
2023-05-01T12:11:06.124Z,35.51
2023-05-01T12:12:05.766Z,35.38
2023-05-01T12:13:05.743Z,34.56
2023-05-01T12:14:05.731Z,34.13
2023-05-01T12:15:05.709Z,34.44
2023-05-01T12:16:05.981Z,34.86
2023-05-01T12:17:05.811Z,34.88
2023-05-01T12:18:05.879Z,34.55
2023-05-01T12:19:05.681Z,35.93
2023-05-01T12:20:07.374Z,33.43
2023-05-01T12:21:05.645Z,34.53
2023-05-01T12:22:05.658Z,35.61
2023-05-01T12:23:05.622Z,33.51
2023-05-01T12:24:05.627Z,33.63
2023-05-01T12:25:05.599Z,34.66
2023-05-01T12:26:05.644Z,34.96
2023-05-01T12:27:05.578Z,34.14
2023-05-01T12:28:05.598Z,34.55
2023-05-01T12:29:05.591Z,33.04
2023-05-01T12:30:05.596Z,33.76
2023-05-01T12:31:05.706Z,33.93
2023-05-01T12:32:05.621Z,32.70
2023-05-01T12:33:05.571Z,32.80
2023-05-01T12:34:05.523Z,33.31
2023-05-01T12:35:05.501Z,32.93
2023-05-01T12:36:06.140Z,33.25
2023-05-01T12:37:05.565Z,34.46
2023-05-01T12:38:05.499Z,35.80
2023-05-01T12:39:05.444Z,36.31
2023-05-01T12:40:05.490Z,36.03
2023-05-01T12:41:05.431Z,35.64
2023-05-01T12:42:05.437Z,36.23
2023-05-01T12:43:05.386Z,36.03
2023-05-01T12:44:05.400Z,35.91
2023-05-01T12:45:05.372Z,37.21
2023-05-01T12:46:05.426Z,37.03
2023-05-01T12:47:05.361Z,35.93
2023-05-01T12:48:05.404Z,35.63
2023-05-01T12:49:05.351Z,36.83
2023-05-01T12:50:05.427Z,34.81
2023-05-01T12:51:06.535Z,34.89
2023-05-01T12:52:05.528Z,33.86